sensor_id;sensor_type;location;lat;lon;timestamp;temperature;humidity
76470;DHT22;65305;52.870;13.660;2023-02-24T00:01:00;5.00;68.30
76470;DHT22;65305;52.870;13.660;2023-02-24T00:03:37;5.00;68.20
76470;DHT22;65305;52.870;13.660;2023-02-24T00:06:04;5.00;68.20
76470;DHT22;65305;52.870;13.660;2023-02-24T00:08:40;5.00;68.30
76470;DHT22;65305;52.870;13.660;2023-02-24T00:11:07;5.00;68.20
76470;DHT22;65305;52.870;13.660;2023-02-24T00:13:34;5.00;68.30
76470;DHT22;65305;52.870;13.660;2023-02-24T00:16:01;5.00;68.30
76470;DHT22;65305;52.870;13.660;2023-02-24T00:18:28;5.00;68.20
76470;DHT22;65305;52.870;13.660;2023-02-24T00:20:54;5.00;68.40
76470;DHT22;65305;52.870;13.660;2023-02-24T00:23:24;5.00;68.20
76470;DHT22;65305;52.870;13.660;2023-02-24T00:25:56;5.00;68.30
76470;DHT22;65305;52.870;13.660;2023-02-24T00:28:26;5.00;68.30
76470;DHT22;65305;52.870;13.660;2023-02-24T00:30:53;5.00;68.20
76470;DHT22;65305;52.870;13.660;2023-02-24T00:33:22;5.00;68.30
76470;DHT22;65305;52.870;13.660;2023-02-24T00:35:49;5.00;68.30
76470;DHT22;65305;52.870;13.660;2023-02-24T00:38:16;5.00;68.40
76470;DHT22;65305;52.870;13.660;2023-02-24T00:40:42;5.00;68.30
76470;DHT22;65305;52.870;13.660;2023-02-24T00:43:12;5.00;68.40
76470;DHT22;65305;52.870;13.660;2023-02-24T00:45:39;5.00;68.40
76470;DHT22;65305;52.870;13.660;2023-02-24T00:48:05;5.00;68.30
76470;DHT22;65305;52.870;13.660;2023-02-24T00:50:35;5.00;68.40
76470;DHT22;65305;52.870;13.660;2023-02-24T00:53:04;5.00;68.40
76470;DHT22;65305;52.870;13.660;2023-02-24T00:55:31;5.00;68.40
76470;DHT22;65305;52.870;13.660;2023-02-24T00:58:02;5.00;68.40
76470;DHT22;65305;52.870;13.660;2023-02-24T01:00:29;5.00;68.30
76470;DHT22;65305;52.870;13.660;2023-02-24T01:03:00;5.00;68.40
76470;DHT22;65305;52.870;13.660;2023-02-24T01:05:27;5.00;68.40
76470;DHT22;65305;52.870;13.660;2023-02-24T01:07:54;5.00;68.50
76470;DHT22;65305;52.870;13.660;2023-02-24T01:10:20;5.00;68.60
76470;DHT22;65305;52.870;13.660;2023-02-24T01:12:48;5.00;68.50
76470;DHT22;65305;52.870;13.660;2023-02-24T01:15:18;5.00;68.60
76470;DHT22;65305;52.870;13.660;2023-02-24T01:17:45;5.00;68.70
76470;DHT22;65305;52.870;13.660;2023-02-24T01:20:11;5.00;68.70
76470;DHT22;65305;52.870;13.660;2023-02-24T01:22:50;5.00;68.80
76470;DHT22;65305;52.870;13.660;2023-02-24T01:25:23;5.00;68.90
76470;DHT22;65305;52.870;13.660;2023-02-24T01:27:50;5.00;69.00
76470;DHT22;65305;52.870;13.660;2023-02-24T01:30:18;5.00;69.00
76470;DHT22;65305;52.870;13.660;2023-02-24T01:32:45;5.00;69.30
76470;DHT22;65305;52.870;13.660;2023-02-24T01:35:12;5.00;69.70
76470;DHT22;65305;52.870;13.660;2023-02-24T01:37:39;5.00;69.40
76470;DHT22;65305;52.870;13.660;2023-02-24T01:40:07;5.00;70.20
76470;DHT22;65305;52.870;13.660;2023-02-24T01:42:46;5.00;69.90
76470;DHT22;65305;52.870;13.660;2023-02-24T01:45:15;5.00;70.20
76470;DHT22;65305;52.870;13.660;2023-02-24T01:47:42;5.00;70.30
76470;DHT22;65305;52.870;13.660;2023-02-24T01:50:09;5.00;70.30
76470;DHT22;65305;52.870;13.660;2023-02-24T01:52:40;5.00;70.20
76470;DHT22;65305;52.870;13.660;2023-02-24T01:55:09;5.00;70.30
76470;DHT22;65305;52.870;13.660;2023-02-24T01:57:38;5.00;70.10
76470;DHT22;65305;52.870;13.660;2023-02-24T02:00:07;5.00;70.20
76470;DHT22;65305;52.870;13.660;2023-02-24T02:02:45;5.00;70.10
76470;DHT22;65305;52.870;13.660;2023-02-24T02:05:15;5.00;70.00
76470;DHT22;65305;52.870;13.660;2023-02-24T02:07:43;5.00;70.00
76470;DHT22;65305;52.870;13.660;2023-02-24T02:10:10;5.00;69.90
76470;DHT22;65305;52.870;13.660;2023-02-24T02:12:37;5.00;69.90
76470;DHT22;65305;52.870;13.660;2023-02-24T02:15:13;5.00;69.80
76470;DHT22;65305;52.870;13.660;2023-02-24T02:18:01;5.00;69.80
76470;DHT22;65305;52.870;13.660;2023-02-24T02:26:06;5.00;69.60
76470;DHT22;65305;52.870;13.660;2023-02-24T02:31:33;5.00;69.60
76470;DHT22;65305;52.870;13.660;2023-02-24T02:34:09;5.00;69.30
76470;DHT22;65305;52.870;13.660;2023-02-24T02:41:52;5.00;69.30
76470;DHT22;65305;52.870;13.660;2023-02-24T02:44:25;5.00;69.30
76470;DHT22;65305;52.870;13.660;2023-02-24T02:47:07;5.00;69.10
76470;DHT22;65305;52.870;13.660;2023-02-24T02:49:38;5.00;69.20
76470;DHT22;65305;52.870;13.660;2023-02-24T02:52:11;5.00;69.30
76470;DHT22;65305;52.870;13.660;2023-02-24T02:54:47;5.00;69.20
76470;DHT22;65305;52.870;13.660;2023-02-24T02:57:18;5.00;69.20
76470;DHT22;65305;52.870;13.660;2023-02-24T02:59:48;5.00;69.10
76470;DHT22;65305;52.870;13.660;2023-02-24T03:02:18;5.00;69.10
76470;DHT22;65305;52.870;13.660;2023-02-24T03:04:54;5.00;69.20
76470;DHT22;65305;52.870;13.660;2023-02-24T03:07:22;5.00;69.10
76470;DHT22;65305;52.870;13.660;2023-02-24T03:09:58;5.00;69.00
76470;DHT22;65305;52.870;13.660;2023-02-24T03:12:27;5.00;69.00
76470;DHT22;65305;52.870;13.660;2023-02-24T03:14:59;5.00;69.00
76470;DHT22;65305;52.870;13.660;2023-02-24T03:17:27;5.00;69.00
76470;DHT22;65305;52.870;13.660;2023-02-24T03:20:00;5.00;69.00
76470;DHT22;65305;52.870;13.660;2023-02-24T03:22:41;5.00;69.10
76470;DHT22;65305;52.870;13.660;2023-02-24T03:25:10;5.00;69.00
76470;DHT22;65305;52.870;13.660;2023-02-24T03:27:48;5.00;68.90
76470;DHT22;65305;52.870;13.660;2023-02-24T03:30:19;5.00;68.90
76470;DHT22;65305;52.870;13.660;2023-02-24T03:35:16;5.00;69.00
76470;DHT22;65305;52.870;13.660;2023-02-24T03:37:44;5.00;68.90
76470;DHT22;65305;52.870;13.660;2023-02-24T03:40:14;4.90;68.90
76470;DHT22;65305;52.870;13.660;2023-02-24T03:42:45;5.00;68.90
76470;DHT22;65305;52.870;13.660;2023-02-24T03:45:12;5.00;69.00
76470;DHT22;65305;52.870;13.660;2023-02-24T03:47:41;5.00;68.90
76470;DHT22;65305;52.870;13.660;2023-02-24T03:50:15;5.00;68.90
76470;DHT22;65305;52.870;13.660;2023-02-24T03:55:34;5.00;68.80
76470;DHT22;65305;52.870;13.660;2023-02-24T04:01:06;4.90;68.70
76470;DHT22;65305;52.870;13.660;2023-02-24T04:03:53;5.00;68.70
76470;DHT22;65305;52.870;13.660;2023-02-24T04:12:38;5.00;68.80
76470;DHT22;65305;52.870;13.660;2023-02-24T04:14:46;4.90;68.80
76470;DHT22;65305;52.870;13.660;2023-02-24T04:17:17;4.90;68.70
76470;DHT22;65305;52.870;13.660;2023-02-24T04:19:44;4.90;68.70
76470;DHT22;65305;52.870;13.660;2023-02-24T04:22:12;4.90;68.70
76470;DHT22;65305;52.870;13.660;2023-02-24T04:24:41;4.90;68.70
76470;DHT22;65305;52.870;13.660;2023-02-24T04:27:09;5.00;68.70
76470;DHT22;65305;52.870;13.660;2023-02-24T04:29:45;4.90;68.70
76470;DHT22;65305;52.870;13.660;2023-02-24T04:32:13;4.90;68.70
76470;DHT22;65305;52.870;13.660;2023-02-24T04:34:41;4.90;68.70
76470;DHT22;65305;52.870;13.660;2023-02-24T04:37:07;4.90;68.70
76470;DHT22;65305;52.870;13.660;2023-02-24T04:39:33;4.90;68.70
76470;DHT22;65305;52.870;13.660;2023-02-24T04:42:04;4.90;68.60
76470;DHT22;65305;52.870;13.660;2023-02-24T04:44:31;4.90;68.60
76470;DHT22;65305;52.870;13.660;2023-02-24T04:46:58;4.90;68.60
76470;DHT22;65305;52.870;13.660;2023-02-24T04:49:25;4.90;68.60
76470;DHT22;65305;52.870;13.660;2023-02-24T04:51:54;4.90;68.60
76470;DHT22;65305;52.870;13.660;2023-02-24T04:54:22;4.90;68.60
76470;DHT22;65305;52.870;13.660;2023-02-24T04:56:49;4.90;68.60
76470;DHT22;65305;52.870;13.660;2023-02-24T04:59:17;4.90;68.60
76470;DHT22;65305;52.870;13.660;2023-02-24T05:01:44;4.90;68.60
76470;DHT22;65305;52.870;13.660;2023-02-24T05:04:11;4.90;68.50
76470;DHT22;65305;52.870;13.660;2023-02-24T05:06:41;4.90;68.50
76470;DHT22;65305;52.870;13.660;2023-02-24T05:09:13;4.90;68.60
76470;DHT22;65305;52.870;13.660;2023-02-24T05:11:44;4.90;68.50
76470;DHT22;65305;52.870;13.660;2023-02-24T05:14:11;4.90;68.50
76470;DHT22;65305;52.870;13.660;2023-02-24T05:16:41;4.90;68.50
76470;DHT22;65305;52.870;13.660;2023-02-24T05:19:12;4.90;68.50
76470;DHT22;65305;52.870;13.660;2023-02-24T05:21:57;4.90;68.60
76470;DHT22;65305;52.870;13.660;2023-02-24T05:24:24;4.90;68.50
76470;DHT22;65305;52.870;13.660;2023-02-24T05:26:52;4.90;68.50
76470;DHT22;65305;52.870;13.660;2023-02-24T05:29:25;4.90;68.60
76470;DHT22;65305;52.870;13.660;2023-02-24T05:31:53;4.90;68.50
76470;DHT22;65305;52.870;13.660;2023-02-24T05:34:25;4.90;68.50
76470;DHT22;65305;52.870;13.660;2023-02-24T05:36:51;4.90;68.50
76470;DHT22;65305;52.870;13.660;2023-02-24T05:39:18;4.90;68.50
76470;DHT22;65305;52.870;13.660;2023-02-24T05:41:47;4.90;68.50
76470;DHT22;65305;52.870;13.660;2023-02-24T05:44:14;4.90;68.50
76470;DHT22;65305;52.870;13.660;2023-02-24T05:46:43;4.90;68.50
76470;DHT22;65305;52.870;13.660;2023-02-24T05:49:14;4.90;68.50
76470;DHT22;65305;52.870;13.660;2023-02-24T05:51:41;4.90;68.50
76470;DHT22;65305;52.870;13.660;2023-02-24T05:54:20;4.90;68.50
76470;DHT22;65305;52.870;13.660;2023-02-24T05:56:47;4.90;68.50
76470;DHT22;65305;52.870;13.660;2023-02-24T05:59:14;4.90;68.50
76470;DHT22;65305;52.870;13.660;2023-02-24T06:01:47;4.80;68.50
76470;DHT22;65305;52.870;13.660;2023-02-24T06:04:14;4.90;68.50
76470;DHT22;65305;52.870;13.660;2023-02-24T06:07:01;4.90;68.50
76470;DHT22;65305;52.870;13.660;2023-02-24T06:09:29;4.90;68.60
76470;DHT22;65305;52.870;13.660;2023-02-24T06:11:55;4.90;68.50
76470;DHT22;65305;52.870;13.660;2023-02-24T06:14:23;4.90;68.50
76470;DHT22;65305;52.870;13.660;2023-02-24T06:16:49;4.80;68.50
76470;DHT22;65305;52.870;13.660;2023-02-24T06:19:15;4.80;68.50
76470;DHT22;65305;52.870;13.660;2023-02-24T06:21:42;4.90;68.50
76470;DHT22;65305;52.870;13.660;2023-02-24T06:24:10;4.90;68.60
76470;DHT22;65305;52.870;13.660;2023-02-24T06:26:40;4.90;68.50
76470;DHT22;65305;52.870;13.660;2023-02-24T06:29:11;4.90;68.50
76470;DHT22;65305;52.870;13.660;2023-02-24T06:31:39;4.80;68.50
76470;DHT22;65305;52.870;13.660;2023-02-24T06:34:06;4.80;68.50
76470;DHT22;65305;52.870;13.660;2023-02-24T06:36:38;4.80;68.50
76470;DHT22;65305;52.870;13.660;2023-02-24T06:39:05;4.80;68.40
76470;DHT22;65305;52.870;13.660;2023-02-24T06:41:39;4.90;68.50
76470;DHT22;65305;52.870;13.660;2023-02-24T06:44:07;4.90;68.40
76470;DHT22;65305;52.870;13.660;2023-02-24T06:46:34;4.80;68.40
76470;DHT22;65305;52.870;13.660;2023-02-24T06:49:01;4.80;68.50
76470;DHT22;65305;52.870;13.660;2023-02-24T06:51:27;4.80;68.40
76470;DHT22;65305;52.870;13.660;2023-02-24T06:54:03;4.80;68.40
76470;DHT22;65305;52.870;13.660;2023-02-24T06:57:00;4.80;68.40
76470;DHT22;65305;52.870;13.660;2023-02-24T06:59:28;4.80;68.40
76470;DHT22;65305;52.870;13.660;2023-02-24T07:01:55;4.80;68.40
76470;DHT22;65305;52.870;13.660;2023-02-24T07:04:21;4.80;68.40
76470;DHT22;65305;52.870;13.660;2023-02-24T07:06:51;4.80;68.30
76470;DHT22;65305;52.870;13.660;2023-02-24T07:09:19;4.80;68.40
76470;DHT22;65305;52.870;13.660;2023-02-24T07:11:46;4.80;68.40
76470;DHT22;65305;52.870;13.660;2023-02-24T07:14:26;4.80;68.30
76470;DHT22;65305;52.870;13.660;2023-02-24T07:16:56;4.80;68.30
76470;DHT22;65305;52.870;13.660;2023-02-24T07:19:24;4.80;68.30
76470;DHT22;65305;52.870;13.660;2023-02-24T07:21:53;4.80;68.30
76470;DHT22;65305;52.870;13.660;2023-02-24T07:24:25;4.70;68.30
76470;DHT22;65305;52.870;13.660;2023-02-24T07:26:58;4.80;68.30
76470;DHT22;65305;52.870;13.660;2023-02-24T07:29:26;4.80;68.30
76470;DHT22;65305;52.870;13.660;2023-02-24T07:31:53;4.80;68.30
76470;DHT22;65305;52.870;13.660;2023-02-24T07:34:20;4.70;68.30
76470;DHT22;65305;52.870;13.660;2023-02-24T07:36:53;4.80;68.30
76470;DHT22;65305;52.870;13.660;2023-02-24T07:39:20;4.80;68.30
76470;DHT22;65305;52.870;13.660;2023-02-24T07:41:51;4.70;68.30
76470;DHT22;65305;52.870;13.660;2023-02-24T07:44:18;4.80;68.30
76470;DHT22;65305;52.870;13.660;2023-02-24T07:46:46;4.70;68.30
76470;DHT22;65305;52.870;13.660;2023-02-24T07:49:15;4.70;68.30
76470;DHT22;65305;52.870;13.660;2023-02-24T07:51:43;4.80;68.30
76470;DHT22;65305;52.870;13.660;2023-02-24T07:54:09;4.70;68.30
76470;DHT22;65305;52.870;13.660;2023-02-24T07:56:36;4.70;68.30
76470;DHT22;65305;52.870;13.660;2023-02-24T07:59:12;4.70;68.20
76470;DHT22;65305;52.870;13.660;2023-02-24T08:01:41;4.70;68.30
76470;DHT22;65305;52.870;13.660;2023-02-24T08:04:19;4.70;68.20
76470;DHT22;65305;52.870;13.660;2023-02-24T08:06:48;4.70;68.20
76470;DHT22;65305;52.870;13.660;2023-02-24T08:09:23;4.70;68.20
76470;DHT22;65305;52.870;13.660;2023-02-24T08:12:11;4.70;68.20
76470;DHT22;65305;52.870;13.660;2023-02-24T08:14:43;4.70;68.20
76470;DHT22;65305;52.870;13.660;2023-02-24T08:17:16;4.70;68.30
76470;DHT22;65305;52.870;13.660;2023-02-24T08:19:48;4.70;68.20
76470;DHT22;65305;52.870;13.660;2023-02-24T08:22:15;4.70;68.20
76470;DHT22;65305;52.870;13.660;2023-02-24T08:24:46;4.70;68.20
76470;DHT22;65305;52.870;13.660;2023-02-24T08:27:16;4.70;68.10
76470;DHT22;65305;52.870;13.660;2023-02-24T08:29:49;4.70;68.20
76470;DHT22;65305;52.870;13.660;2023-02-24T08:34:59;4.70;68.10
76470;DHT22;65305;52.870;13.660;2023-02-24T08:37:29;4.70;68.10
76470;DHT22;65305;52.870;13.660;2023-02-24T08:40:09;4.70;68.10
76470;DHT22;65305;52.870;13.660;2023-02-24T08:43:09;4.70;68.10
76470;DHT22;65305;52.870;13.660;2023-02-24T08:45:49;4.70;68.10
76470;DHT22;65305;52.870;13.660;2023-02-24T08:48:17;4.70;68.10
76470;DHT22;65305;52.870;13.660;2023-02-24T08:50:54;4.70;68.00
76470;DHT22;65305;52.870;13.660;2023-02-24T08:53:22;4.70;68.10
76470;DHT22;65305;52.870;13.660;2023-02-24T08:55:48;4.70;68.10
76470;DHT22;65305;52.870;13.660;2023-02-24T08:58:18;4.70;68.00
76470;DHT22;65305;52.870;13.660;2023-02-24T09:00:45;4.70;68.00
76470;DHT22;65305;52.870;13.660;2023-02-24T09:03:15;4.70;68.00
76470;DHT22;65305;52.870;13.660;2023-02-24T09:05:57;4.70;68.10
76470;DHT22;65305;52.870;13.660;2023-02-24T09:08:23;4.70;68.00
76470;DHT22;65305;52.870;13.660;2023-02-24T09:10:59;4.70;68.00
76470;DHT22;65305;52.870;13.660;2023-02-24T09:13:25;4.70;68.00
76470;DHT22;65305;52.870;13.660;2023-02-24T09:16:02;4.70;67.90
76470;DHT22;65305;52.870;13.660;2023-02-24T09:18:28;4.70;67.90
76470;DHT22;65305;52.870;13.660;2023-02-24T09:20:55;4.70;68.00
76470;DHT22;65305;52.870;13.660;2023-02-24T09:23:22;4.70;68.00
76470;DHT22;65305;52.870;13.660;2023-02-24T09:25:56;4.70;67.90
76470;DHT22;65305;52.870;13.660;2023-02-24T09:28:24;4.70;68.00
76470;DHT22;65305;52.870;13.660;2023-02-24T09:30:55;4.70;67.90
76470;DHT22;65305;52.870;13.660;2023-02-24T09:33:23;4.70;67.80
76470;DHT22;65305;52.870;13.660;2023-02-24T09:38:25;4.70;67.90
76470;DHT22;65305;52.870;13.660;2023-02-24T09:41:17;4.70;67.80
76470;DHT22;65305;52.870;13.660;2023-02-24T09:43:55;4.70;67.90
76470;DHT22;65305;52.870;13.660;2023-02-24T09:46:25;4.70;67.90
76470;DHT22;65305;52.870;13.660;2023-02-24T09:48:55;4.70;67.80
76470;DHT22;65305;52.870;13.660;2023-02-24T09:51:30;4.70;67.80
76470;DHT22;65305;52.870;13.660;2023-02-24T09:54:11;4.70;67.80
76470;DHT22;65305;52.870;13.660;2023-02-24T09:56:57;4.70;67.80
76470;DHT22;65305;52.870;13.660;2023-02-24T10:03:03;4.70;67.70
76470;DHT22;65305;52.870;13.660;2023-02-24T10:05:54;4.70;67.70
76470;DHT22;65305;52.870;13.660;2023-02-24T10:08:31;4.70;67.80
76470;DHT22;65305;52.870;13.660;2023-02-24T10:11:00;4.70;67.60
76470;DHT22;65305;52.870;13.660;2023-02-24T10:13:36;4.70;67.70
76470;DHT22;65305;52.870;13.660;2023-02-24T10:16:03;4.70;67.60
76470;DHT22;65305;52.870;13.660;2023-02-24T10:18:36;4.70;67.60
76470;DHT22;65305;52.870;13.660;2023-02-24T10:26:29;4.70;67.70
76470;DHT22;65305;52.870;13.660;2023-02-24T10:31:44;4.70;67.70
76470;DHT22;65305;52.870;13.660;2023-02-24T10:34:14;4.70;67.70
76470;DHT22;65305;52.870;13.660;2023-02-24T10:36:51;4.70;67.70
76470;DHT22;65305;52.870;13.660;2023-02-24T10:39:19;4.70;67.70
76470;DHT22;65305;52.870;13.660;2023-02-24T10:41:52;4.70;67.70
76470;DHT22;65305;52.870;13.660;2023-02-24T10:44:23;4.70;67.80
76470;DHT22;65305;52.870;13.660;2023-02-24T10:47:02;4.70;67.80
76470;DHT22;65305;52.870;13.660;2023-02-24T10:49:39;4.70;67.80
76470;DHT22;65305;52.870;13.660;2023-02-24T10:52:13;4.70;67.80
76470;DHT22;65305;52.870;13.660;2023-02-24T10:55:18;4.70;67.80
76470;DHT22;65305;52.870;13.660;2023-02-24T11:01:07;4.70;67.80
76470;DHT22;65305;52.870;13.660;2023-02-24T11:03:48;4.70;67.70
76470;DHT22;65305;52.870;13.660;2023-02-24T11:06:30;4.70;67.90
76470;DHT22;65305;52.870;13.660;2023-02-24T11:11:51;4.70;67.80
76470;DHT22;65305;52.870;13.660;2023-02-24T11:14:45;4.70;67.80
76470;DHT22;65305;52.870;13.660;2023-02-24T11:17:31;4.70;67.80
76470;DHT22;65305;52.870;13.660;2023-02-24T11:19:59;4.70;67.80
76470;DHT22;65305;52.870;13.660;2023-02-24T11:22:31;4.70;67.90
76470;DHT22;65305;52.870;13.660;2023-02-24T11:25:02;4.70;67.80
76470;DHT22;65305;52.870;13.660;2023-02-24T11:27:31;4.70;67.80
76470;DHT22;65305;52.870;13.660;2023-02-24T11:37:40;4.70;67.80
76470;DHT22;65305;52.870;13.660;2023-02-24T11:42:54;4.70;67.90
76470;DHT22;65305;52.870;13.660;2023-02-24T11:45:30;4.70;68.00
76470;DHT22;65305;52.870;13.660;2023-02-24T11:48:02;4.70;67.90
76470;DHT22;65305;52.870;13.660;2023-02-24T11:50:40;4.70;67.90
76470;DHT22;65305;52.870;13.660;2023-02-24T11:53:22;4.60;67.90
76470;DHT22;65305;52.870;13.660;2023-02-24T11:55:53;4.70;67.90
76470;DHT22;65305;52.870;13.660;2023-02-24T11:58:33;4.70;67.90
76470;DHT22;65305;52.870;13.660;2023-02-24T12:06:40;4.70;67.90
76470;DHT22;65305;52.870;13.660;2023-02-24T12:09:12;4.70;67.90
76470;DHT22;65305;52.870;13.660;2023-02-24T12:14:17;4.60;67.90
76470;DHT22;65305;52.870;13.660;2023-02-24T12:16:45;4.60;67.90
76470;DHT22;65305;52.870;13.660;2023-02-24T12:19:17;4.70;67.90
76470;DHT22;65305;52.870;13.660;2023-02-24T12:21:50;4.70;67.90
76470;DHT22;65305;52.870;13.660;2023-02-24T12:24:19;4.60;67.90
76470;DHT22;65305;52.870;13.660;2023-02-24T12:26:57;4.70;67.90
76470;DHT22;65305;52.870;13.660;2023-02-24T12:37:34;4.60;68.00
76470;DHT22;65305;52.870;13.660;2023-02-24T12:40:11;4.60;68.00
76470;DHT22;65305;52.870;13.660;2023-02-24T12:42:51;4.60;68.10
76470;DHT22;65305;52.870;13.660;2023-02-24T12:45:44;4.60;68.00
76470;DHT22;65305;52.870;13.660;2023-02-24T12:50:49;4.60;68.00
76470;DHT22;65305;52.870;13.660;2023-02-24T12:53:38;4.60;68.00
76470;DHT22;65305;52.870;13.660;2023-02-24T12:56:11;4.60;68.00
76470;DHT22;65305;52.870;13.660;2023-02-24T12:58:41;4.60;68.00
76470;DHT22;65305;52.870;13.660;2023-02-24T13:01:12;4.60;68.10
76470;DHT22;65305;52.870;13.660;2023-02-24T13:09:18;4.60;68.00
76470;DHT22;65305;52.870;13.660;2023-02-24T13:11:50;4.60;68.10
76470;DHT22;65305;52.870;13.660;2023-02-24T13:14:20;4.60;68.00
76470;DHT22;65305;52.870;13.660;2023-02-24T13:16:49;4.60;68.10
76470;DHT22;65305;52.870;13.660;2023-02-24T13:19:20;4.60;68.10
76470;DHT22;65305;52.870;13.660;2023-02-24T13:24:31;4.50;68.00
76470;DHT22;65305;52.870;13.660;2023-02-24T13:27:05;4.50;68.10
76470;DHT22;65305;52.870;13.660;2023-02-24T13:29:41;4.50;68.20
76470;DHT22;65305;52.870;13.660;2023-02-24T13:32:30;4.50;68.10
76470;DHT22;65305;52.870;13.660;2023-02-24T13:35:00;4.60;68.20
76470;DHT22;65305;52.870;13.660;2023-02-24T13:37:30;4.50;68.10
76470;DHT22;65305;52.870;13.660;2023-02-24T13:39:57;4.50;68.20
76470;DHT22;65305;52.870;13.660;2023-02-24T13:42:24;4.60;68.10
76470;DHT22;65305;52.870;13.660;2023-02-24T13:44:52;4.50;68.10
76470;DHT22;65305;52.870;13.660;2023-02-24T13:49:54;4.50;68.20
76470;DHT22;65305;52.870;13.660;2023-02-24T13:52:34;4.60;68.10
76470;DHT22;65305;52.870;13.660;2023-02-24T13:55:12;4.50;68.10
76470;DHT22;65305;52.870;13.660;2023-02-24T14:00:30;4.50;68.20
76470;DHT22;65305;52.870;13.660;2023-02-24T14:03:07;4.50;68.10
76470;DHT22;65305;52.870;13.660;2023-02-24T14:05:34;4.50;68.20
76470;DHT22;65305;52.870;13.660;2023-02-24T14:08:01;4.50;68.20
76470;DHT22;65305;52.870;13.660;2023-02-24T14:10:30;4.50;68.20
76470;DHT22;65305;52.870;13.660;2023-02-24T14:13:02;4.50;68.20
76470;DHT22;65305;52.870;13.660;2023-02-24T14:15:31;4.50;68.20
76470;DHT22;65305;52.870;13.660;2023-02-24T14:18:01;4.50;68.20
76470;DHT22;65305;52.870;13.660;2023-02-24T14:20:32;4.50;68.20
76470;DHT22;65305;52.870;13.660;2023-02-24T14:22:59;4.50;68.20
76470;DHT22;65305;52.870;13.660;2023-02-24T14:25:28;4.50;68.20
76470;DHT22;65305;52.870;13.660;2023-02-24T14:27:56;4.50;68.10
76470;DHT22;65305;52.870;13.660;2023-02-24T14:30:23;4.50;68.10
76470;DHT22;65305;52.870;13.660;2023-02-24T14:32:50;4.50;68.10
76470;DHT22;65305;52.870;13.660;2023-02-24T14:35:19;4.50;68.20
76470;DHT22;65305;52.870;13.660;2023-02-24T14:37:49;4.50;68.10
76470;DHT22;65305;52.870;13.660;2023-02-24T14:40:15;4.50;68.10
76470;DHT22;65305;52.870;13.660;2023-02-24T14:42:48;4.50;68.10
76470;DHT22;65305;52.870;13.660;2023-02-24T14:45:15;4.50;68.10
76470;DHT22;65305;52.870;13.660;2023-02-24T14:47:41;4.50;68.20
76470;DHT22;65305;52.870;13.660;2023-02-24T14:50:14;4.50;68.20
76470;DHT22;65305;52.870;13.660;2023-02-24T14:52:45;4.50;68.20
76470;DHT22;65305;52.870;13.660;2023-02-24T14:55:16;4.50;68.10
76470;DHT22;65305;52.870;13.660;2023-02-24T14:57:52;4.50;68.10
76470;DHT22;65305;52.870;13.660;2023-02-24T15:00:27;4.50;68.10
76470;DHT22;65305;52.870;13.660;2023-02-24T15:05:23;4.50;68.20
76470;DHT22;65305;52.870;13.660;2023-02-24T15:07:50;4.50;68.10
76470;DHT22;65305;52.870;13.660;2023-02-24T15:10:17;4.50;68.20
76470;DHT22;65305;52.870;13.660;2023-02-24T15:12:46;4.50;68.10
76470;DHT22;65305;52.870;13.660;2023-02-24T15:17:43;4.50;68.10
76470;DHT22;65305;52.870;13.660;2023-02-24T15:20:26;4.50;68.10
76470;DHT22;65305;52.870;13.660;2023-02-24T15:22:53;4.50;68.10
76470;DHT22;65305;52.870;13.660;2023-02-24T15:25:23;4.50;68.20
76470;DHT22;65305;52.870;13.660;2023-02-24T15:27:54;4.50;68.10
76470;DHT22;65305;52.870;13.660;2023-02-24T15:32:57;4.50;68.20
76470;DHT22;65305;52.870;13.660;2023-02-24T15:35:26;4.50;68.20
76470;DHT22;65305;52.870;13.660;2023-02-24T15:37:53;4.50;68.20
76470;DHT22;65305;52.870;13.660;2023-02-24T15:40:20;4.50;68.20
76470;DHT22;65305;52.870;13.660;2023-02-24T15:42:51;4.50;68.20
76470;DHT22;65305;52.870;13.660;2023-02-24T15:45:31;4.50;68.20
76470;DHT22;65305;52.870;13.660;2023-02-24T15:47:59;4.50;68.20
76470;DHT22;65305;52.870;13.660;2023-02-24T15:50:26;4.50;68.20
76470;DHT22;65305;52.870;13.660;2023-02-24T15:53:00;4.50;68.20
76470;DHT22;65305;52.870;13.660;2023-02-24T15:55:30;4.50;68.10
76470;DHT22;65305;52.870;13.660;2023-02-24T15:58:01;4.50;68.10
76470;DHT22;65305;52.870;13.660;2023-02-24T16:00:28;4.50;68.10
76470;DHT22;65305;52.870;13.660;2023-02-24T16:02:56;4.50;68.20
76470;DHT22;65305;52.870;13.660;2023-02-24T16:05:23;4.50;68.10
76470;DHT22;65305;52.870;13.660;2023-02-24T16:07:50;4.50;68.10
76470;DHT22;65305;52.870;13.660;2023-02-24T16:10:18;4.50;68.10
76470;DHT22;65305;52.870;13.660;2023-02-24T16:12:46;4.50;68.10
76470;DHT22;65305;52.870;13.660;2023-02-24T16:15:16;4.50;68.10
76470;DHT22;65305;52.870;13.660;2023-02-24T16:17:45;4.50;68.20
76470;DHT22;65305;52.870;13.660;2023-02-24T16:20:13;4.50;68.10
76470;DHT22;65305;52.870;13.660;2023-02-24T16:22:39;4.50;68.10
76470;DHT22;65305;52.870;13.660;2023-02-24T16:25:06;4.50;68.10
76470;DHT22;65305;52.870;13.660;2023-02-24T16:27:32;4.50;68.10
76470;DHT22;65305;52.870;13.660;2023-02-24T16:29:59;4.50;68.10
76470;DHT22;65305;52.870;13.660;2023-02-24T16:32:26;4.50;68.20
76470;DHT22;65305;52.870;13.660;2023-02-24T16:34:53;4.40;68.20
76470;DHT22;65305;52.870;13.660;2023-02-24T16:37:25;4.50;68.10
76470;DHT22;65305;52.870;13.660;2023-02-24T16:39:52;4.50;68.20
76470;DHT22;65305;52.870;13.660;2023-02-24T16:42:19;4.50;68.20
76470;DHT22;65305;52.870;13.660;2023-02-24T16:44:49;4.40;68.20
76470;DHT22;65305;52.870;13.660;2023-02-24T16:47:19;4.40;68.20
76470;DHT22;65305;52.870;13.660;2023-02-24T16:49:48;4.40;68.20
76470;DHT22;65305;52.870;13.660;2023-02-24T16:52:15;4.40;68.20
76470;DHT22;65305;52.870;13.660;2023-02-24T16:54:44;4.50;68.20
76470;DHT22;65305;52.870;13.660;2023-02-24T16:57:12;4.40;68.20
76470;DHT22;65305;52.870;13.660;2023-02-24T16:59:38;4.40;68.20
76470;DHT22;65305;52.870;13.660;2023-02-24T17:02:05;4.40;68.20
76470;DHT22;65305;52.870;13.660;2023-02-24T17:04:35;4.40;68.20
76470;DHT22;65305;52.870;13.660;2023-02-24T17:07:02;4.40;68.20
76470;DHT22;65305;52.870;13.660;2023-02-24T17:09:28;4.40;68.20
76470;DHT22;65305;52.870;13.660;2023-02-24T17:11:56;4.40;68.10
76470;DHT22;65305;52.870;13.660;2023-02-24T17:14:22;4.50;68.20
76470;DHT22;65305;52.870;13.660;2023-02-24T17:16:49;4.40;68.10
76470;DHT22;65305;52.870;13.660;2023-02-24T17:19:16;4.50;68.20
76470;DHT22;65305;52.870;13.660;2023-02-24T17:21:43;4.40;68.20
76470;DHT22;65305;52.870;13.660;2023-02-24T17:24:14;4.40;68.10
76470;DHT22;65305;52.870;13.660;2023-02-24T17:26:40;4.40;68.10
76470;DHT22;65305;52.870;13.660;2023-02-24T17:29:07;4.40;68.20
76470;DHT22;65305;52.870;13.660;2023-02-24T17:31:33;4.40;68.20
76470;DHT22;65305;52.870;13.660;2023-02-24T17:34:00;4.40;68.10